Terminal Aerodrome Forecast
Issued by NWS Amarillo, TX

Home | Current Version | Previous Version | Text Only | Print | Product List | Glossary On
Versions: 1 2 3 4 5 6 7 8 9 10 11 12 13 14
526
FTUS44 KAMA 060523
TAFDHT
TAF
KDHT 060523Z 0606/0706 19008KT P6SM SKC
     FM061600 18018G28KT P6SM FEW090 SCT200
     FM070100 16018G28KT P6SM BKN150=

USA.gov is the U.S. government's official web portal to all federal, state and local government web resources and services.